メインページ
METAR-TAF:

METAR-TAF

空港 :

ロスモチス, メキシコ

緯度: 25-41N, 経度: 109-05W, 海抜: 4m

現時点の気象観測

当レポートは2時間16分前の04:40(UTC)に作成
西/北西の風 5kt
気温 18°C
湿度 73%
気圧 1018 hPa
視程: 16.1km
晴天

METAR: MMLM 130440Z 29005KT 10SM SKC 18/13 A3007

時間: 23:56 (06:56 UTC)

予報

当レポートは2時間30分前の04:26(UTC)に作成
予報は13日の 06時(UTC)から 14日の 06時(UTC)まで有効
西の風 5kt
視程: 10km
晴天
13日の 1800時(UTC)から
西/北西の風 15kt
視程: 10km
高度2000ftの千切れ雲あり
高度25000ftの千切れ雲あり
14日の 0500時(UTC)から
西/北西の風 5kt
視程: 10km
高度25000ftの雲は散在している

TAF: MMLM 130426Z 1306/1406 28005KT P6SM SKC FM131800 30015KT P6SM BKN020 BKN250 FM140500 30005KT P6SM SCT250

4,000以上の空港の気象観測と天気予報(METAR報とTAF報)

利用可能な観測所は地図上に黄色い丸と赤い丸で示す。

丸の上にカーソルを重ねると観測所名を参照できる。

次にクリックすると気象観測と天気予報を参照できる。

マップの切り替え:黒色「×」印の緑ボタンをクリックして拡大、「-」印の緑ボタンをクリックして縮小、緑色の三角印をクリックして隣りの地図に切り替え


METAR-TAF: